sensor_id;sensor_type;location;lat;lon;timestamp;pressure;altitude;pressure_sealevel;temperature;humidity
42003;BME280;27693;50.506;30.832;2023-04-16T00:01:01;100230.27;;;7.16;100.00
42003;BME280;27693;50.506;30.832;2023-04-16T00:02:04;100231.00;;;7.21;100.00
42003;BME280;27693;50.506;30.832;2023-04-16T00:03:07;100233.63;;;7.19;100.00
42003;BME280;27693;50.506;30.832;2023-04-16T00:04:12;100231.00;;;7.21;100.00
42003;BME280;27693;50.506;30.832;2023-04-16T00:05:15;100231.00;;;7.21;100.00
42003;BME280;27693;50.506;30.832;2023-04-16T00:06:18;100228.16;;;7.32;100.00
42003;BME280;27693;50.506;30.832;2023-04-16T00:07:21;100229.92;;;7.30;100.00
42003;BME280;27693;50.506;30.832;2023-04-16T00:08:23;100232.91;;;7.13;100.00
42003;BME280;27693;50.506;30.832;2023-04-16T00:09:25;100227.19;;;7.00;100.00
42003;BME280;27693;50.506;30.832;2023-04-16T00:10:27;100227.19;;;7.00;100.00
42003;BME280;27693;50.506;30.832;2023-04-16T00:11:30;100233.69;;;7.16;100.00
42003;BME280;27693;50.506;30.832;2023-04-16T00:12:32;100240.51;;;7.21;100.00
42003;BME280;27693;50.506;30.832;2023-04-16T00:13:35;100235.54;;;7.11;100.00
42003;BME280;27693;50.506;30.832;2023-04-16T00:14:37;100234.13;;;6.98;100.00
42003;BME280;27693;50.506;30.832;2023-04-16T00:15:39;100233.38;;;6.93;100.00
42003;BME280;27693;50.506;30.832;2023-04-16T00:16:42;100244.61;;;6.92;100.00
42003;BME280;27693;50.506;30.832;2023-04-16T00:17:44;100235.69;;;7.05;100.00
42003;BME280;27693;50.506;30.832;2023-04-16T00:18:48;100233.00;;;7.10;100.00
42003;BME280;27693;50.506;30.832;2023-04-16T00:19:50;100235.39;;;7.17;100.00
42003;BME280;27693;50.506;30.832;2023-04-16T00:20:53;100239.64;;;7.20;100.00
42003;BME280;27693;50.506;30.832;2023-04-16T00:21:55;100242.03;;;7.28;100.00
42003;BME280;27693;50.506;30.832;2023-04-16T00:22:57;100240.42;;;7.24;100.00
42003;BME280;27693;50.506;30.832;2023-04-16T00:24:00;100238.80;;;7.19;100.00
42003;BME280;27693;50.506;30.832;2023-04-16T00:25:02;100238.66;;;7.26;100.00
42003;BME280;27693;50.506;30.832;2023-04-16T00:26:07;100238.66;;;7.26;100.00
42003;BME280;27693;50.506;30.832;2023-04-16T00:27:09;100235.33;;;7.21;100.00
42003;BME280;27693;50.506;30.832;2023-04-16T00:28:11;100243.05;;;7.22;100.00
42003;BME280;27693;50.506;30.832;2023-04-16T00:29:14;100240.42;;;7.24;100.00
42003;BME280;27693;50.506;30.832;2023-04-16T00:30:16;100236.80;;;7.31;100.00
42003;BME280;27693;50.506;30.832;2023-04-16T00:31:31;100234.16;;;7.32;100.00
42003;BME280;27693;50.506;30.832;2023-04-16T00:32:31;100237.69;;;7.30;100.00
42003;BME280;27693;50.506;30.832;2023-04-16T00:33:33;100240.27;;;7.30;100.00
42003;BME280;27693;50.506;30.832;2023-04-16T00:34:36;100232.27;;;7.03;99.96
42003;BME280;27693;50.506;30.832;2023-04-16T00:35:38;100234.13;;;6.98;100.00
42003;BME280;27693;50.506;30.832;2023-04-16T00:36:42;100231.48;;;6.99;100.00
42003;BME280;27693;50.506;30.832;2023-04-16T00:37:44;100237.30;;;7.09;100.00
42003;BME280;27693;50.506;30.832;2023-04-16T00:38:47;100238.95;;;7.13;100.00
42003;BME280;27693;50.506;30.832;2023-04-16T00:39:50;100233.89;;;7.07;100.00
42003;BME280;27693;50.506;30.832;2023-04-16T00:40:53;100233.09;;;7.05;100.00
42003;BME280;27693;50.506;30.832;2023-04-16T00:41:55;100232.41;;;6.97;100.00
42003;BME280;27693;50.506;30.832;2023-04-16T00:42:57;100235.97;;;6.93;100.00
42003;BME280;27693;50.506;30.832;2023-04-16T00:44:00;100244.66;;;6.88;100.00
42003;BME280;27693;50.506;30.832;2023-04-16T00:45:03;100236.30;;;6.77;100.00
42003;BME280;27693;50.506;30.832;2023-04-16T00:46:07;100245.72;;;6.80;100.00
42003;BME280;27693;50.506;30.832;2023-04-16T00:47:10;100244.98;;;6.75;100.00
42003;BME280;27693;50.506;30.832;2023-04-16T00:48:12;100239.72;;;6.78;100.00
42003;BME280;27693;50.506;30.832;2023-04-16T00:49:15;100243.05;;;6.84;100.00
42003;BME280;27693;50.506;30.832;2023-04-16T00:50:17;100237.92;;;6.81;100.00
42003;BME280;27693;50.506;30.832;2023-04-16T00:51:20;100240.60;;;6.77;100.00
42003;BME280;27693;50.506;30.832;2023-04-16T00:52:24;100244.80;;;6.82;100.00
42003;BME280;27693;50.506;30.832;2023-04-16T00:53:27;100243.73;;;6.93;100.00
42003;BME280;27693;50.506;30.832;2023-04-16T00:54:30;100244.52;;;6.95;100.00
42003;BME280;27693;50.506;30.832;2023-04-16T00:55:33;100243.59;;;6.97;100.00
42003;BME280;27693;50.506;30.832;2023-04-16T00:56:37;100248.13;;;6.87;100.00
42003;BME280;27693;50.506;30.832;2023-04-16T00:57:40;100242.95;;;6.87;100.00
42003;BME280;27693;50.506;30.832;2023-04-16T00:58:42;100251.73;;;6.80;100.00
42003;BME280;27693;50.506;30.832;2023-04-16T00:59:44;100249.97;;;6.82;100.00
42003;BME280;27693;50.506;30.832;2023-04-16T01:00:47;100241.98;;;6.93;100.00
42003;BME280;27693;50.506;30.832;2023-04-16T01:01:50;100234.27;;;6.92;100.00
42003;BME280;27693;50.506;30.832;2023-04-16T01:02:53;100234.81;;;7.04;100.00
42003;BME280;27693;50.506;30.832;2023-04-16T01:03:57;100241.54;;;7.13;100.00
42003;BME280;27693;50.506;30.832;2023-04-16T01:05:02;100238.23;;;7.07;100.00
42003;BME280;27693;50.506;30.832;2023-04-16T01:06:06;100237.53;;;7.00;100.00
42003;BME280;27693;50.506;30.832;2023-04-16T01:07:08;100240.86;;;7.05;100.00
42003;BME280;27693;50.506;30.832;2023-04-16T01:08:16;100238.95;;;7.13;100.00
42003;BME280;27693;50.506;30.832;2023-04-16T01:09:19;100242.27;;;7.18;100.00
42003;BME280;27693;50.506;30.832;2023-04-16T01:10:22;100248.91;;;7.29;100.00
42003;BME280;27693;50.506;30.832;2023-04-16T01:11:24;100245.14;;;7.42;100.00
42003;BME280;27693;50.506;30.832;2023-04-16T01:12:27;100241.24;;;7.26;100.00
42003;BME280;27693;50.506;30.832;2023-04-16T01:13:29;100248.27;;;7.21;100.00
42003;BME280;27693;50.506;30.832;2023-04-16T01:14:32;100247.73;;;7.06;100.00
42003;BME280;27693;50.506;30.832;2023-04-16T01:15:36;100240.47;;;7.22;100.00
42003;BME280;27693;50.506;30.832;2023-04-16T01:16:39;100240.27;;;7.30;100.00
42003;BME280;27693;50.506;30.832;2023-04-16T01:17:44;100241.83;;;7.37;100.00
42003;BME280;27693;50.506;30.832;2023-04-16T01:18:47;100252.38;;;7.29;100.00
42003;BME280;27693;50.506;30.832;2023-04-16T01:19:50;100253.46;;;7.19;100.00
42003;BME280;27693;50.506;30.832;2023-04-16T01:20:52;100246.83;;;7.07;100.00
42003;BME280;27693;50.506;30.832;2023-04-16T01:21:54;100253.70;;;7.08;100.00
42003;BME280;27693;50.506;30.832;2023-04-16T01:22:57;100245.74;;;7.17;100.00
42003;BME280;27693;50.506;30.832;2023-04-16T01:24:03;100251.94;;;7.10;100.00
42003;BME280;27693;50.506;30.832;2023-04-16T01:25:05;100251.34;;;6.99;100.00
42003;BME280;27693;50.506;30.832;2023-04-16T01:26:08;100252.97;;;7.03;100.00
42003;BME280;27693;50.506;30.832;2023-04-16T01:27:10;100247.50;;;7.15;100.00
42003;BME280;27693;50.506;30.832;2023-04-16T01:28:13;100251.06;;;7.11;100.00
42003;BME280;27693;50.506;30.832;2023-04-16T01:29:15;100250.28;;;7.08;100.00
42003;BME280;27693;50.506;30.832;2023-04-16T01:30:18;100249.64;;;6.98;100.00
42003;BME280;27693;50.506;30.832;2023-04-16T01:31:22;100238.56;;;6.91;100.00
42003;BME280;27693;50.506;30.832;2023-04-16T01:32:26;100246.50;;;6.83;100.00
42003;BME280;27693;50.506;30.832;2023-04-16T01:33:29;100244.76;;;6.84;100.00
42003;BME280;27693;50.506;30.832;2023-04-16T01:34:31;100241.20;;;6.90;100.00
42003;BME280;27693;50.506;30.832;2023-04-16T01:35:33;100237.77;;;6.89;100.00
42003;BME280;27693;50.506;30.832;2023-04-16T01:36:36;100237.73;;;6.91;100.00
42003;BME280;27693;50.506;30.832;2023-04-16T01:37:38;100244.47;;;6.98;100.00
42003;BME280;27693;50.506;30.832;2023-04-16T01:38:40;100238.27;;;7.05;100.00
42003;BME280;27693;50.506;30.832;2023-04-16T01:39:43;100237.59;;;6.97;100.00
42003;BME280;27693;50.506;30.832;2023-04-16T01:40:45;100239.63;;;6.82;100.00
42003;BME280;27693;50.506;30.832;2023-04-16T01:41:47;100240.45;;;6.84;100.00
42003;BME280;27693;50.506;30.832;2023-04-16T01:42:50;100245.53;;;6.89;100.00
42003;BME280;27693;50.506;30.832;2023-04-16T01:43:52;100237.73;;;6.91;100.00
42003;BME280;27693;50.506;30.832;2023-04-16T01:44:54;100241.94;;;6.95;100.00
42003;BME280;27693;50.506;30.832;2023-04-16T01:46:12;100241.70;;;7.06;100.00
42003;BME280;27693;50.506;30.832;2023-04-16T01:47:16;100246.17;;;6.99;100.00
42003;BME280;27693;50.506;30.832;2023-04-16T01:48:19;100239.20;;;7.02;100.00
42003;BME280;27693;50.506;30.832;2023-04-16T01:49:22;100236.77;;;6.95;100.00
42003;BME280;27693;50.506;30.832;2023-04-16T01:50:24;100243.96;;;6.82;100.00
42003;BME280;27693;50.506;30.832;2023-04-16T01:51:27;100243.84;;;6.86;100.00
42003;BME280;27693;50.506;30.832;2023-04-16T01:52:30;100237.78;;;6.87;100.00
42003;BME280;27693;50.506;30.832;2023-04-16T01:53:32;100246.31;;;6.93;100.00
42003;BME280;27693;50.506;30.832;2023-04-16T01:54:37;100240.31;;;6.91;100.00
42003;BME280;27693;50.506;30.832;2023-04-16T01:55:39;100238.55;;;6.93;100.00
42003;BME280;27693;50.506;30.832;2023-04-16T01:56:43;100243.87;;;6.85;100.00
42003;BME280;27693;50.506;30.832;2023-04-16T01:57:45;100246.37;;;6.90;100.00
42003;BME280;27693;50.506;30.832;2023-04-16T01:58:49;100238.31;;;7.03;100.00
42003;BME280;27693;50.506;30.832;2023-04-16T01:59:52;100244.19;;;7.10;100.00
42003;BME280;27693;50.506;30.832;2023-04-16T02:00:56;100242.48;;;7.09;100.00
42003;BME280;27693;50.506;30.832;2023-04-16T02:02:06;100242.38;;;7.14;100.00
42003;BME280;27693;50.506;30.832;2023-04-16T02:03:04;100248.14;;;7.25;100.00
42003;BME280;27693;50.506;30.832;2023-04-16T02:04:08;100244.72;;;7.25;100.00
42003;BME280;27693;50.506;30.832;2023-04-16T02:05:11;100237.73;;;7.28;100.00
42003;BME280;27693;50.506;30.832;2023-04-16T02:06:13;100247.36;;;7.22;100.00
42003;BME280;27693;50.506;30.832;2023-04-16T02:07:16;100242.91;;;7.28;100.00
42003;BME280;27693;50.506;30.832;2023-04-16T02:08:18;100250.47;;;7.36;100.00
42003;BME280;27693;50.506;30.832;2023-04-16T02:09:22;100248.23;;;7.22;100.00
42003;BME280;27693;50.506;30.832;2023-04-16T02:10:25;100246.56;;;7.19;100.00
42003;BME280;27693;50.506;30.832;2023-04-16T02:11:28;100250.72;;;7.27;100.00
42003;BME280;27693;50.506;30.832;2023-04-16T02:12:30;100244.81;;;7.20;100.00
42003;BME280;27693;50.506;30.832;2023-04-16T02:13:33;100243.30;;;7.11;100.00
42003;BME280;27693;50.506;30.832;2023-04-16T02:14:36;100250.92;;;7.17;100.00
42003;BME280;27693;50.506;30.832;2023-04-16T02:15:38;100252.68;;;7.15;100.00
42003;BME280;27693;50.506;30.832;2023-04-16T02:16:41;100251.74;;;7.19;100.00
42003;BME280;27693;50.506;30.832;2023-04-16T02:17:46;100250.37;;;7.03;100.00
42003;BME280;27693;50.506;30.832;2023-04-16T02:18:49;100246.73;;;7.12;100.00
42003;BME280;27693;50.506;30.832;2023-04-16T02:19:53;100244.91;;;7.17;100.00
42003;BME280;27693;50.506;30.832;2023-04-16T02:20:58;100249.50;;;7.04;100.00
42003;BME280;27693;50.506;30.832;2023-04-16T02:22:03;100245.25;;;7.01;100.00
42003;BME280;27693;50.506;30.832;2023-04-16T02:23:07;100245.89;;;7.11;100.00
42003;BME280;27693;50.506;30.832;2023-04-16T02:24:10;100256.09;;;7.17;100.00
42003;BME280;27693;50.506;30.832;2023-04-16T02:25:13;100256.92;;;7.19;100.00
42003;BME280;27693;50.506;30.832;2023-04-16T02:26:16;100257.66;;;7.25;100.00
42003;BME280;27693;50.506;30.832;2023-04-16T02:27:18;100253.21;;;7.30;100.00
42003;BME280;27693;50.506;30.832;2023-04-16T02:28:22;100253.16;;;7.33;100.00
42003;BME280;27693;50.506;30.832;2023-04-16T02:29:25;100254.28;;;7.21;100.00
42003;BME280;27693;50.506;30.832;2023-04-16T02:30:29;100261.27;;;7.17;100.00
42003;BME280;27693;50.506;30.832;2023-04-16T02:31:32;100259.42;;;7.23;100.00
42003;BME280;27693;50.506;30.832;2023-04-16T02:32:35;100255.95;;;7.24;100.00
42003;BME280;27693;50.506;30.832;2023-04-16T02:33:37;100264.45;;;7.29;100.00
42003;BME280;27693;50.506;30.832;2023-04-16T02:34:40;100264.45;;;7.29;100.00
42003;BME280;27693;50.506;30.832;2023-04-16T02:35:45;100259.46;;;7.21;100.00
42003;BME280;27693;50.506;30.832;2023-04-16T02:36:49;100257.71;;;7.22;100.00
42003;BME280;27693;50.506;30.832;2023-04-16T02:37:51;100262.88;;;7.22;100.00
42003;BME280;27693;50.506;30.832;2023-04-16T02:38:54;100269.62;;;7.29;100.00
42003;BME280;27693;50.506;30.832;2023-04-16T02:39:56;100262.62;;;7.34;100.00
42003;BME280;27693;50.506;30.832;2023-04-16T02:40:59;100271.03;;;7.42;100.00
42003;BME280;27693;50.506;30.832;2023-04-16T02:42:03;100266.63;;;7.46;100.00
42003;BME280;27693;50.506;30.832;2023-04-16T02:43:05;100266.78;;;7.40;100.00
42003;BME280;27693;50.506;30.832;2023-04-16T02:44:07;100265.95;;;7.39;100.00
42003;BME280;27693;50.506;30.832;2023-04-16T02:45:10;100266.09;;;7.33;100.00
42003;BME280;27693;50.506;30.832;2023-04-16T02:46:13;100265.08;;;7.39;100.00
42003;BME280;27693;50.506;30.832;2023-04-16T02:47:16;100267.50;;;7.46;100.00
42003;BME280;27693;50.506;30.832;2023-04-16T02:48:18;100265.06;;;7.40;100.00
42003;BME280;27693;50.506;30.832;2023-04-16T02:49:21;100264.34;;;7.33;100.00
42003;BME280;27693;50.506;30.832;2023-04-16T02:50:23;100263.56;;;7.30;100.00
42003;BME280;27693;50.506;30.832;2023-04-16T02:51:26;100268.70;;;7.31;100.00
42003;BME280;27693;50.506;30.832;2023-04-16T02:52:28;100271.18;;;7.36;100.00
42003;BME280;27693;50.506;30.832;2023-04-16T02:53:30;100273.92;;;7.30;100.00
42003;BME280;27693;50.506;30.832;2023-04-16T02:54:33;100280.06;;;7.26;100.00
42003;BME280;27693;50.506;30.832;2023-04-16T02:55:35;100273.03;;;7.31;100.00
42003;BME280;27693;50.506;30.832;2023-04-16T02:56:37;100273.92;;;7.30;100.00
42003;BME280;27693;50.506;30.832;2023-04-16T02:57:39;100266.16;;;7.30;100.00
42003;BME280;27693;50.506;30.832;2023-04-16T02:58:43;100266.88;;;7.37;100.00
42003;BME280;27693;50.506;30.832;2023-04-16T02:59:46;100275.63;;;7.31;100.00
42003;BME280;27693;50.506;30.832;2023-04-16T03:00:49;100273.88;;;7.31;100.00
42003;BME280;27693;50.506;30.832;2023-04-16T03:01:52;100274.80;;;7.29;100.00
42003;BME280;27693;50.506;30.832;2023-04-16T03:02:55;100272.21;;;7.29;100.00
42003;BME280;27693;50.506;30.832;2023-04-16T03:03:58;100277.47;;;7.26;100.00
42003;BME280;27693;50.506;30.832;2023-04-16T03:05:01;100279.88;;;7.33;100.00
42003;BME280;27693;50.506;30.832;2023-04-16T03:06:04;100282.46;;;7.33;100.00
42003;BME280;27693;50.506;30.832;2023-04-16T03:07:06;100281.63;;;7.33;100.00
42003;BME280;27693;50.506;30.832;2023-04-16T03:08:10;100279.71;;;7.41;100.00
42003;BME280;27693;50.506;30.832;2023-04-16T03:09:13;100279.71;;;7.41;100.00
42003;BME280;27693;50.506;30.832;2023-04-16T03:10:16;100280.61;;;7.39;100.00
42003;BME280;27693;50.506;30.832;2023-04-16T03:11:19;100280.20;;;7.19;100.00
42003;BME280;27693;50.506;30.832;2023-04-16T03:12:22;100282.81;;;7.18;100.00
42003;BME280;27693;50.506;30.832;2023-04-16T03:13:24;100285.38;;;7.19;100.00
42003;BME280;27693;50.506;30.832;2023-04-16T03:14:26;100287.87;;;7.24;100.00
42003;BME280;27693;50.506;30.832;2023-04-16T03:15:29;100296.66;;;7.17;100.00
42003;BME280;27693;50.506;30.832;2023-04-16T03:16:32;100285.38;;;7.19;100.00
42003;BME280;27693;50.506;30.832;2023-04-16T03:17:34;100286.86;;;7.30;100.00
42003;BME280;27693;50.506;30.832;2023-04-16T03:18:37;100295.25;;;7.41;100.00
42003;BME280;27693;50.506;30.832;2023-04-16T03:19:39;100291.98;;;7.33;100.00
42003;BME280;27693;50.506;30.832;2023-04-16T03:20:41;100297.06;;;7.36;100.00
42003;BME280;27693;50.506;30.832;2023-04-16T03:21:46;100298.18;;;7.26;100.00
42003;BME280;27693;50.506;30.832;2023-04-16T03:22:48;100292.27;;;7.21;100.00
42003;BME280;27693;50.506;30.832;2023-04-16T03:23:53;100293.89;;;7.25;100.00
42003;BME280;27693;50.506;30.832;2023-04-16T03:24:57;100302.63;;;7.19;100.00
42003;BME280;27693;50.506;30.832;2023-04-16T03:25:59;100296.62;;;7.18;100.00
42003;BME280;27693;50.506;30.832;2023-04-16T03:27:02;100311.95;;;7.26;100.00
42003;BME280;27693;50.506;30.832;2023-04-16T03:28:05;100297.95;;;7.35;100.00
42003;BME280;27693;50.506;30.832;2023-04-16T03:29:07;100300.77;;;7.26;100.00
42003;BME280;27693;50.506;30.832;2023-04-16T03:30:12;100297.16;;;7.33;100.00
42003;BME280;27693;50.506;30.832;2023-04-16T03:31:15;100306.48;;;7.40;100.00
42003;BME280;27693;50.506;30.832;2023-04-16T03:32:18;100302.04;;;7.45;100.00
42003;BME280;27693;50.506;30.832;2023-04-16T03:33:20;100302.82;;;7.49;100.00
42003;BME280;27693;50.506;30.832;2023-04-16T03:34:23;100312.19;;;7.55;100.00
42003;BME280;27693;50.506;30.832;2023-04-16T03:35:26;100305.45;;;7.47;100.00
42003;BME280;27693;50.506;30.832;2023-04-16T03:36:29;100310.78;;;7.41;100.00
42003;BME280;27693;50.506;30.832;2023-04-16T03:37:32;100296.23;;;7.35;100.00
42003;BME280;27693;50.506;30.832;2023-04-16T03:38:36;100307.42;;;7.36;100.00
42003;BME280;27693;50.506;30.832;2023-04-16T03:39:38;100303.02;;;7.40;100.00
42003;BME280;27693;50.506;30.832;2023-04-16T03:40:41;100302.25;;;7.36;100.00
42003;BME280;27693;50.506;30.832;2023-04-16T03:41:44;100307.01;;;7.17;100.00
42003;BME280;27693;50.506;30.832;2023-04-16T03:42:46;100306.92;;;7.20;100.00
42003;BME280;27693;50.506;30.832;2023-04-16T03:43:48;100299.84;;;7.28;100.00
42003;BME280;27693;50.506;30.832;2023-04-16T03:44:50;100301.46;;;7.32;100.00
42003;BME280;27693;50.506;30.832;2023-04-16T03:45:56;100305.84;;;7.30;100.00
42003;BME280;27693;50.506;30.832;2023-04-16T03:46:58;100301.51;;;7.31;100.00
42003;BME280;27693;50.506;30.832;2023-04-16T03:48:01;100303.17;;;7.33;100.00
42003;BME280;27693;50.506;30.832;2023-04-16T03:49:04;100301.46;;;7.32;100.00
42003;BME280;27693;50.506;30.832;2023-04-16T03:50:09;100314.50;;;7.28;100.00
42003;BME280;27693;50.506;30.832;2023-04-16T03:51:13;100308.44;;;7.30;100.00
42003;BME280;27693;50.506;30.832;2023-04-16T03:52:15;100312.64;;;7.34;100.00
42003;BME280;27693;50.506;30.832;2023-04-16T03:53:19;100313.75;;;7.24;100.00
42003;BME280;27693;50.506;30.832;2023-04-16T03:54:22;100316.16;;;7.32;100.00
42003;BME280;27693;50.506;30.832;2023-04-16T03:55:27;100307.51;;;7.33;100.00
42003;BME280;27693;50.506;30.832;2023-04-16T03:56:31;100313.47;;;7.37;100.00
42003;BME280;27693;50.506;30.832;2023-04-16T03:57:34;100321.38;;;7.30;100.00
42003;BME280;27693;50.506;30.832;2023-04-16T03:58:38;100323.88;;;7.33;100.00
42003;BME280;27693;50.506;30.832;2023-04-16T03:59:42;100321.25;;;7.35;100.00
42003;BME280;27693;50.506;30.832;2023-04-16T04:00:45;100323.82;;;7.37;100.00
42003;BME280;27693;50.506;30.832;2023-04-16T04:01:47;100328.95;;;7.38;100.00
42003;BME280;27693;50.506;30.832;2023-04-16T04:02:50;100319.42;;;7.40;100.00
42003;BME280;27693;50.506;30.832;2023-04-16T04:03:54;100323.72;;;7.41;100.00
42003;BME280;27693;50.506;30.832;2023-04-16T04:04:56;100327.84;;;7.48;100.00
42003;BME280;27693;50.506;30.832;2023-04-16T04:05:58;100328.95;;;7.38;100.00
42003;BME280;27693;50.506;30.832;2023-04-16T04:07:02;100321.97;;;7.42;100.00
42003;BME280;27693;50.506;30.832;2023-04-16T04:08:06;100324.36;;;7.51;100.00
42003;BME280;27693;50.506;30.832;2023-04-16T04:09:09;100331.94;;;7.59;100.00
42003;BME280;27693;50.506;30.832;2023-04-16T04:10:13;100330.75;;;7.72;100.00
42003;BME280;27693;50.506;30.832;2023-04-16T04:11:16;100322.00;;;7.76;99.92
42003;BME280;27693;50.506;30.832;2023-04-16T04:12:19;100325.72;;;7.66;99.31
42003;BME280;27693;50.506;30.832;2023-04-16T04:13:23;100323.80;;;7.74;99.15
42003;BME280;27693;50.506;30.832;2023-04-16T04:14:26;100326.23;;;7.80;98.86
42003;BME280;27693;50.506;30.832;2023-04-16T04:15:28;100325.36;;;7.81;98.61
42003;BME280;27693;50.506;30.832;2023-04-16T04:16:31;100325.20;;;7.88;98.54
42003;BME280;27693;50.506;30.832;2023-04-16T04:17:34;100325.20;;;7.88;98.54
42003;BME280;27693;50.506;30.832;2023-04-16T04:18:37;100329.41;;;7.92;98.24
42003;BME280;27693;50.506;30.832;2023-04-16T04:19:43;100320.08;;;7.84;97.87
42003;BME280;27693;50.506;30.832;2023-04-16T04:20:47;100324.02;;;7.65;97.95
42003;BME280;27693;50.506;30.832;2023-04-16T04:21:51;100317.22;;;7.61;98.13
42003;BME280;27693;50.506;30.832;2023-04-16T04:22:54;100319.82;;;7.59;98.44
42003;BME280;27693;50.506;30.832;2023-04-16T04:23:58;100322.40;;;7.61;98.63
42003;BME280;27693;50.506;30.832;2023-04-16T04:25:03;100325.83;;;7.61;98.69
42003;BME280;27693;50.506;30.832;2023-04-16T04:26:08;100323.23;;;7.61;98.69
42003;BME280;27693;50.506;30.832;2023-04-16T04:27:10;100327.34;;;7.70;98.82
42003;BME280;27693;50.506;30.832;2023-04-16T04:28:13;100326.08;;;7.50;98.67
42003;BME280;27693;50.506;30.832;2023-04-16T04:29:15;100323.82;;;7.37;99.05
42003;BME280;27693;50.506;30.832;2023-04-16T04:30:18;100323.67;;;7.43;99.33
42003;BME280;27693;50.506;30.832;2023-04-16T04:31:20;100326.02;;;7.54;99.57
42003;BME280;27693;50.506;30.832;2023-04-16T04:32:22;100329.19;;;7.65;99.63
42003;BME280;27693;50.506;30.832;2023-04-16T04:33:25;100325.91;;;7.58;99.27
42003;BME280;27693;50.506;30.832;2023-04-16T04:34:27;100328.56;;;7.55;99.21
42003;BME280;27693;50.506;30.832;2023-04-16T04:35:30;100330.91;;;7.66;99.17
42003;BME280;27693;50.506;30.832;2023-04-16T04:36:33;100322.45;;;7.58;99.13
42003;BME280;27693;50.506;30.832;2023-04-16T04:37:35;100327.78;;;7.51;99.12
42003;BME280;27693;50.506;30.832;2023-04-16T04:38:39;100328.13;;;7.36;99.56
42003;BME280;27693;50.506;30.832;2023-04-16T04:39:42;100328.64;;;7.13;100.00
42003;BME280;27693;50.506;30.832;2023-04-16T04:40:50;100330.39;;;7.12;100.00
42003;BME280;27693;50.506;30.832;2023-04-16T04:41:55;100334.56;;;7.18;100.00
42003;BME280;27693;50.506;30.832;2023-04-16T04:42:58;100326.69;;;7.24;100.00
42003;BME280;27693;50.506;30.832;2023-04-16T04:44:00;100328.41;;;7.24;100.00
42003;BME280;27693;50.506;30.832;2023-04-16T04:45:03;100331.19;;;7.14;100.00
42003;BME280;27693;50.506;30.832;2023-04-16T04:46:10;100325.00;;;7.22;100.00
42003;BME280;27693;50.506;30.832;2023-04-16T04:47:13;100326.52;;;7.32;100.00
42003;BME280;27693;50.506;30.832;2023-04-16T04:48:16;100325.86;;;7.22;100.00
42003;BME280;27693;50.506;30.832;2023-04-16T04:49:20;100323.28;;;7.22;100.00
42003;BME280;27693;50.506;30.832;2023-04-16T04:50:22;100326.66;;;7.26;100.00
42003;BME280;27693;50.506;30.832;2023-04-16T04:51:24;100321.48;;;7.26;100.00
42003;BME280;27693;50.506;30.832;2023-04-16T04:52:27;100329.92;;;7.34;100.00
42003;BME280;27693;50.506;30.832;2023-04-16T04:53:30;100329.98;;;7.31;100.00
42003;BME280;27693;50.506;30.832;2023-04-16T04:54:32;100331.59;;;7.37;100.00
42003;BME280;27693;50.506;30.832;2023-04-16T04:55:38;100329.78;;;7.40;100.00
42003;BME280;27693;50.506;30.832;2023-04-16T04:56:41;100327.48;;;7.26;100.00
42003;BME280;27693;50.506;30.832;2023-04-16T04:57:45;100341.17;;;7.31;100.00
42003;BME280;27693;50.506;30.832;2023-04-16T04:58:49;100332.52;;;7.32;100.00
42003;BME280;27693;50.506;30.832;2023-04-16T04:59:53;100334.08;;;7.41;100.00
42003;BME280;27693;50.506;30.832;2023-04-16T05:00:56;100338.48;;;7.36;100.00
42003;BME280;27693;50.506;30.832;2023-04-16T05:01:58;100335.21;;;7.28;100.00
42003;BME280;27693;50.506;30.832;2023-04-16T05:03:03;100332.47;;;7.35;100.00
42003;BME280;27693;50.506;30.832;2023-04-16T05:04:05;100330.95;;;7.25;100.00
42003;BME280;27693;50.506;30.832;2023-04-16T05:05:08;100336.22;;;7.22;100.00
42003;BME280;27693;50.506;30.832;2023-04-16T05:06:11;100341.95;;;7.35;100.00
42003;BME280;27693;50.506;30.832;2023-04-16T05:07:13;100339.99;;;7.46;100.00
42003;BME280;27693;50.506;30.832;2023-04-16T05:08:17;100338.28;;;7.45;100.00
42003;BME280;27693;50.506;30.832;2023-04-16T05:09:19;100337.46;;;7.43;100.00
42003;BME280;27693;50.506;30.832;2023-04-16T05:10:22;100331.50;;;7.40;100.00
42003;BME280;27693;50.506;30.832;2023-04-16T05:11:25;100341.84;;;7.41;99.88
42003;BME280;27693;50.506;30.832;2023-04-16T05:12:28;100341.61;;;7.50;99.93
42003;BME280;27693;50.506;30.832;2023-04-16T05:13:30;100333.74;;;7.55;99.77
42003;BME280;27693;50.506;30.832;2023-04-16T05:14:32;100334.38;;;7.65;99.73
42003;BME280;27693;50.506;30.832;2023-04-16T05:15:36;100337.64;;;7.73;99.50
42003;BME280;27693;50.506;30.832;2023-04-16T05:16:38;100335.93;;;7.72;99.05
42003;BME280;27693;50.506;30.832;2023-04-16T05:17:41;100332.41;;;7.75;98.77
42003;BME280;27693;50.506;30.832;2023-04-16T05:18:43;100334.31;;;7.68;98.48
42003;BME280;27693;50.506;30.832;2023-04-16T05:19:47;100331.58;;;7.74;98.48
42003;BME280;27693;50.506;30.832;2023-04-16T05:20:49;100340.90;;;7.81;98.38
42003;BME280;27693;50.506;30.832;2023-04-16T05:21:53;100341.47;;;7.93;98.37
42003;BME280;27693;50.506;30.832;2023-04-16T05:22:55;100338.82;;;7.96;97.84
42003;BME280;27693;50.506;30.832;2023-04-16T05:23:58;100339.70;;;7.95;97.33
42003;BME280;27693;50.506;30.832;2023-04-16T05:25:00;100342.31;;;7.93;97.13
42003;BME280;27693;50.506;30.832;2023-04-16T05:26:03;100338.47;;;7.74;97.19